aviador You're here:

KOKC Decoded Metar

OKLAHOMA CITY in OK, USA
Report Time2017-11-18 13:52:00
UTC Time2017-11-18 14:09:02
Flight Rules vfr VFR
Wind340° at 23 Gusting to 37 kt
W.Decomp.*RWY 35: 22.2 kt HW 6 kt LCW
RWY 36: 20.8 kt HW 9.7 kt LCW
RWY 31: 20.8 kt HW 9.7 kt RCW
W.Rank340° ranks 10
Current wind is above 340° avg. (10.8)
Visibility9999 m
Phenomena:N/A
Clouds:Scattered 030 Hf
Broken 180 Hf
Expected CloudBase > 3,200 ft AGL from Temp-Dew spread
Ceiling18,000 ft
Temp11°C (ISA -1)
Dew Point03°C (58% RH)
AAT1.2°C
QNH1011 hPa
Density Alt1,283 ft
Elevation1,280 ft
Report Wrong Elevation
Raw Report
KOKC 181352Z 34023G37KT 10SM SCT030 BKN180 11/03 A2985 RMK AO2 PK
WND 34037/1345 SLP098 T01060033=

Extra information for KOKC:More info

Metar Taf Metar & Taf Last 4 Metars F.Rules Stats Wind Profile Meteogram Temp Stats Airport Information Weather charts Add Link Nearby VenuesMetar ALERT Operation Metar Decoded Social comments

AIRNAV info for KOKC